createdAt,value
2018-12-06T00:01:40.970Z,22.80
2018-12-06T00:04:09.939Z,22.10
2018-12-06T00:06:38.662Z,25.00
2018-12-06T00:09:07.650Z,24.30
2018-12-06T00:11:36.449Z,20.80
2018-12-06T00:14:05.112Z,25.60
2018-12-06T00:16:33.799Z,25.30
2018-12-06T00:19:08.102Z,26.90
2018-12-06T00:21:37.006Z,21.40
2018-12-06T00:24:05.740Z,22.80
2018-12-06T00:26:34.493Z,26.90
2018-12-06T00:29:03.219Z,20.40
2018-12-06T00:31:31.934Z,16.60
2018-12-06T00:34:00.702Z,18.10
2018-12-06T00:36:29.424Z,18.50
2018-12-06T00:38:58.172Z,17.70
2018-12-06T00:41:26.851Z,19.70
2018-12-06T00:43:55.569Z,17.90
2018-12-06T00:46:24.329Z,20.80
2018-12-06T00:48:53.011Z,18.10
2018-12-06T00:51:21.734Z,21.00
2018-12-06T00:53:50.435Z,26.90
2018-12-06T00:56:19.117Z,20.70
2018-12-06T00:58:47.828Z,20.50
2018-12-06T01:01:16.539Z,23.90
2018-12-06T01:03:45.284Z,20.60
2018-12-06T01:06:13.974Z,20.50
2018-12-06T01:08:42.671Z,15.40
2018-12-06T01:11:11.383Z,15.00
2018-12-06T01:13:40.090Z,13.50
2018-12-06T01:16:08.866Z,14.40
2018-12-06T01:18:37.550Z,17.70
2018-12-06T01:21:06.265Z,21.30
2018-12-06T01:23:34.938Z,19.70
2018-12-06T01:26:03.609Z,20.60
2018-12-06T01:28:32.328Z,17.50
2018-12-06T01:31:01.015Z,15.50
2018-12-06T01:33:29.695Z,17.50
2018-12-06T01:35:58.385Z,21.60
2018-12-06T01:38:27.133Z,20.60
2018-12-06T01:40:55.825Z,15.20
2018-12-06T01:43:24.543Z,16.30
2018-12-06T01:45:53.208Z,19.10
2018-12-06T01:48:22.142Z,15.90
2018-12-06T01:50:50.848Z,19.00
2018-12-06T01:53:19.512Z,18.90
2018-12-06T01:55:48.209Z,19.40
2018-12-06T01:58:16.871Z,20.60
2018-12-06T02:00:45.538Z,20.60
2018-12-06T02:03:14.210Z,15.80
2018-12-06T02:05:42.954Z,19.00
2018-12-06T02:08:11.620Z,17.70
2018-12-06T02:10:40.431Z,20.10
2018-12-06T02:13:09.361Z,21.70
2018-12-06T02:15:38.035Z,20.60
2018-12-06T02:18:06.726Z,20.70
2018-12-06T02:20:35.507Z,19.90
2018-12-06T02:23:04.202Z,20.00
2018-12-06T02:25:32.898Z,20.50
2018-12-06T02:28:01.594Z,18.60
2018-12-06T02:30:30.309Z,24.20
2018-12-06T02:32:59.240Z,16.30
2018-12-06T02:35:27.929Z,16.00
2018-12-06T02:37:56.694Z,16.00
2018-12-06T02:40:25.402Z,15.40
2018-12-06T02:42:54.143Z,14.70
2018-12-06T02:45:22.857Z,18.60
2018-12-06T02:47:52.639Z,17.60
2018-12-06T02:50:21.433Z,9.20
2018-12-06T02:52:51.096Z,12.40
2018-12-06T02:55:20.458Z,12.70
2018-12-06T02:57:49.224Z,6.00
2018-12-06T03:00:17.923Z,5.50
2018-12-06T03:02:46.649Z,6.80
2018-12-06T03:05:15.324Z,8.90
2018-12-06T03:07:44.056Z,11.60
2018-12-06T03:10:12.720Z,8.20
2018-12-06T03:12:41.441Z,8.90
2018-12-06T03:15:10.260Z,4.60
2018-12-06T03:17:38.976Z,12.20
2018-12-06T03:20:08.364Z,2.00
2018-12-06T03:22:37.081Z,1.00
2018-12-06T03:25:06.319Z,1.00
2018-12-06T03:27:35.011Z,1.00
2018-12-06T03:30:04.337Z,1.00
2018-12-06T03:32:33.265Z,1.00
2018-12-06T03:35:01.958Z,1.00
2018-12-06T03:37:30.653Z,1.00
2018-12-06T03:39:59.385Z,1.00
2018-12-06T03:42:28.085Z,1.00
2018-12-06T03:44:56.786Z,1.00
2018-12-06T03:47:25.447Z,1.00
2018-12-06T03:49:54.152Z,1.00
2018-12-06T03:52:22.845Z,1.00
2018-12-06T03:54:51.541Z,1.00
2018-12-06T03:57:20.227Z,1.00
2018-12-06T03:59:51.045Z,1.00
2018-12-06T04:02:19.715Z,1.00
2018-12-06T04:04:48.390Z,1.00
2018-12-06T04:07:17.071Z,1.00
2018-12-06T04:09:45.781Z,1.00
2018-12-06T04:12:14.560Z,1.00
2018-12-06T04:14:43.220Z,1.00
2018-12-06T04:17:11.929Z,1.00
2018-12-06T04:19:40.824Z,1.00
2018-12-06T04:22:09.515Z,1.00
2018-12-06T04:24:38.307Z,1.00
2018-12-06T04:27:07.742Z,1.00
2018-12-06T04:29:36.412Z,1.00
2018-12-06T04:32:05.095Z,1.00
2018-12-06T04:34:33.791Z,1.00
2018-12-06T04:37:02.962Z,1.00
2018-12-06T04:39:31.675Z,1.00
2018-12-06T04:42:00.400Z,1.00
2018-12-06T04:44:29.101Z,1.00
2018-12-06T04:46:57.833Z,1.00
2018-12-06T04:49:27.055Z,1.00
2018-12-06T04:51:55.756Z,1.00
2018-12-06T04:54:24.500Z,1.00
2018-12-06T04:56:53.195Z,1.00
2018-12-06T04:59:21.910Z,1.00
2018-12-06T05:01:50.615Z,1.00
2018-12-06T05:04:19.339Z,1.00
2018-12-06T05:06:48.199Z,1.00
2018-12-06T05:09:16.905Z,1.00
2018-12-06T05:11:45.687Z,1.00
2018-12-06T05:14:14.578Z,1.00
2018-12-06T05:16:44.492Z,1.00
2018-12-06T05:19:13.669Z,1.00
2018-12-06T05:21:42.806Z,1.00
2018-12-06T05:24:11.658Z,1.00
2018-12-06T05:26:41.330Z,1.00
2018-12-06T05:29:10.262Z,1.00
2018-12-06T05:31:38.981Z,1.00
2018-12-06T05:34:07.719Z,1.00
2018-12-06T05:36:36.580Z,1.00
2018-12-06T05:39:06.806Z,1.00
2018-12-06T05:41:35.479Z,1.00
2018-12-06T05:44:04.238Z,99.90
2018-12-06T05:46:32.961Z,99.90
2018-12-06T05:49:01.688Z,99.90
2018-12-06T05:51:30.467Z,99.90
2018-12-06T05:53:59.216Z,99.90
2018-12-06T05:56:28.223Z,99.90
2018-12-06T05:58:56.964Z,99.90
2018-12-06T06:01:25.660Z,99.90
2018-12-06T06:03:54.362Z,99.90
2018-12-06T06:06:23.079Z,99.90
2018-12-06T06:08:51.643Z,99.90
2018-12-06T06:11:20.419Z,99.90
2018-12-06T06:13:49.226Z,82.20
2018-12-06T06:16:17.944Z,96.70
2018-12-06T06:18:46.610Z,17.60
2018-12-06T06:21:15.386Z,1.00
2018-12-06T06:23:44.106Z,99.90
2018-12-06T06:26:12.915Z,99.90
2018-12-06T06:28:41.645Z,99.90
2018-12-06T06:31:10.399Z,99.90
2018-12-06T06:33:39.115Z,99.90
2018-12-06T06:36:07.810Z,99.90
2018-12-06T06:38:36.484Z,99.90
2018-12-06T06:41:05.203Z,99.90
2018-12-06T06:43:33.883Z,1.00
2018-12-06T06:46:02.625Z,14.70
2018-12-06T06:48:31.587Z,49.90
2018-12-06T06:51:00.290Z,99.90
2018-12-06T06:53:29.010Z,99.90
2018-12-06T06:55:57.796Z,99.90
2018-12-06T06:58:26.472Z,99.90
2018-12-06T07:00:55.213Z,99.90
2018-12-06T07:03:24.087Z,99.90
2018-12-06T07:05:52.773Z,99.90
2018-12-06T07:08:21.499Z,99.90
2018-12-06T07:10:50.216Z,99.90
2018-12-06T07:13:18.940Z,99.90
2018-12-06T07:15:47.650Z,99.90
2018-12-06T07:18:16.389Z,99.90
2018-12-06T07:20:46.501Z,99.90
2018-12-06T07:23:15.379Z,99.90
2018-12-06T07:25:46.457Z,99.90
2018-12-06T07:28:14.793Z,99.90
2018-12-06T07:30:43.478Z,99.90
2018-12-06T07:33:14.707Z,99.90
2018-12-06T07:35:43.909Z,99.90
2018-12-06T07:38:12.605Z,99.90
2018-12-06T07:40:41.269Z,99.90
2018-12-06T07:43:09.927Z,99.90
2018-12-06T07:45:38.617Z,99.90
2018-12-06T07:48:07.318Z,99.90
2018-12-06T07:50:35.993Z,99.90
2018-12-06T07:53:04.722Z,99.90
2018-12-06T07:55:34.190Z,99.90
2018-12-06T07:58:03.082Z,99.90
2018-12-06T08:00:32.024Z,99.90
2018-12-06T08:03:00.729Z,99.90
2018-12-06T08:05:29.422Z,99.90
2018-12-06T08:07:58.167Z,99.90
2018-12-06T08:10:27.712Z,99.90
2018-12-06T08:12:56.823Z,1.00
2018-12-06T08:15:25.483Z,99.90
2018-12-06T08:17:54.204Z,99.90
2018-12-06T08:20:22.905Z,99.90
2018-12-06T08:22:51.601Z,99.90
2018-12-06T08:25:20.306Z,99.90
2018-12-06T08:27:48.986Z,99.90
2018-12-06T08:30:17.653Z,99.90
2018-12-06T08:32:46.311Z,99.90
2018-12-06T08:35:14.993Z,99.90
2018-12-06T08:37:45.941Z,99.90
2018-12-06T08:40:14.708Z,99.90
2018-12-06T08:42:45.848Z,99.90
2018-12-06T08:45:16.013Z,99.90
2018-12-06T08:47:44.697Z,1.00
2018-12-06T08:50:15.973Z,99.90
2018-12-06T08:52:44.643Z,99.90
2018-12-06T08:55:13.290Z,99.90
2018-12-06T08:57:43.417Z,99.90
2018-12-06T09:00:12.104Z,99.90
2018-12-06T09:02:40.869Z,99.90
2018-12-06T09:05:09.561Z,99.90
2018-12-06T09:07:38.234Z,99.90
2018-12-06T09:10:07.425Z,99.90
2018-12-06T09:12:36.138Z,99.90
2018-12-06T09:15:05.313Z,99.90
2018-12-06T09:17:34.039Z,34.80
2018-12-06T09:20:02.697Z,1.00
2018-12-06T09:22:31.397Z,1.00
2018-12-06T09:25:02.544Z,1.00
2018-12-06T09:27:31.257Z,1.00
2018-12-06T09:29:59.977Z,1.00
2018-12-06T09:32:28.624Z,99.90
2018-12-06T09:34:57.318Z,1.00
2018-12-06T09:37:26.043Z,99.90
2018-12-06T09:39:57.783Z,1.00
2018-12-06T09:42:26.516Z,1.00
2018-12-06T09:44:55.281Z,99.90
2018-12-06T09:47:23.962Z,1.00
2018-12-06T09:49:52.655Z,1.00
2018-12-06T09:52:21.312Z,1.00
2018-12-06T09:54:50.037Z,1.00
2018-12-06T09:57:19.110Z,1.00
2018-12-06T09:59:47.801Z,99.90
2018-12-06T10:02:16.510Z,1.00
2018-12-06T10:04:45.248Z,99.90
2018-12-06T10:07:13.892Z,99.90
2018-12-06T10:09:42.552Z,17.40
2018-12-06T10:12:11.248Z,1.00
2018-12-06T10:14:39.956Z,99.90
2018-12-06T10:17:08.657Z,1.00
2018-12-06T10:19:37.359Z,1.00
2018-12-06T10:22:06.080Z,1.00
2018-12-06T10:24:35.470Z,1.00
2018-12-06T10:27:04.191Z,1.00
2018-12-06T10:29:33.875Z,99.90
2018-12-06T10:32:03.185Z,1.00
2018-12-06T10:34:31.996Z,99.90
2018-12-06T10:37:00.669Z,24.20
2018-12-06T10:39:29.337Z,1.00
2018-12-06T10:41:58.042Z,99.90
2018-12-06T10:44:30.493Z,1.00
2018-12-06T10:46:59.196Z,99.90
2018-12-06T10:49:28.006Z,1.00
2018-12-06T10:51:56.710Z,99.90
2018-12-06T10:54:25.380Z,99.90
2018-12-06T10:56:54.106Z,1.00
2018-12-06T10:59:23.359Z,1.00
2018-12-06T11:01:57.634Z,1.00
2018-12-06T11:04:27.988Z,99.90
2018-12-06T11:06:56.693Z,99.90
2018-12-06T11:09:25.448Z,1.00
2018-12-06T11:11:54.161Z,99.90
2018-12-06T11:14:22.816Z,1.00
2018-12-06T11:16:53.172Z,99.90
2018-12-06T11:19:23.242Z,1.00
2018-12-06T11:21:51.902Z,99.90
2018-12-06T11:24:55.968Z,99.90
2018-12-06T11:27:24.653Z,1.00
2018-12-06T11:29:53.316Z,1.00
2018-12-06T11:32:22.068Z,1.00
2018-12-06T11:34:50.765Z,1.00
2018-12-06T11:37:19.432Z,1.00
2018-12-06T11:39:48.105Z,99.90
2018-12-06T11:42:16.775Z,1.00
2018-12-06T11:44:45.444Z,1.00
2018-12-06T11:47:15.199Z,99.90
2018-12-06T11:49:43.867Z,99.90
2018-12-06T11:52:12.546Z,1.00
2018-12-06T11:54:41.261Z,1.00
2018-12-06T11:57:09.917Z,1.00
2018-12-06T11:59:38.594Z,1.00
2018-12-06T12:02:10.111Z,23.30
2018-12-06T12:04:37.937Z,99.90
2018-12-06T12:07:06.612Z,99.90
2018-12-06T12:09:35.283Z,99.90
2018-12-06T12:12:04.023Z,99.90
2018-12-06T12:14:32.691Z,99.90
2018-12-06T12:17:01.383Z,99.90
2018-12-06T12:19:30.113Z,99.90
2018-12-06T12:21:58.813Z,99.90
2018-12-06T12:24:27.557Z,99.90
2018-12-06T12:26:56.267Z,99.90
2018-12-06T12:29:24.953Z,1.00
2018-12-06T12:31:53.640Z,1.00
2018-12-06T12:34:22.607Z,1.00
2018-12-06T12:36:51.276Z,1.00
2018-12-06T12:39:20.008Z,1.00
2018-12-06T12:41:48.738Z,1.00
2018-12-06T12:44:18.032Z,1.00
2018-12-06T12:46:46.765Z,1.00
2018-12-06T12:49:15.460Z,1.00
2018-12-06T12:51:44.172Z,1.00
2018-12-06T12:54:12.861Z,1.00
2018-12-06T12:56:41.526Z,1.00
2018-12-06T12:59:10.225Z,1.00
2018-12-06T13:01:38.936Z,1.00
2018-12-06T13:04:07.598Z,1.00
2018-12-06T13:06:36.346Z,1.00
2018-12-06T13:09:07.217Z,1.00
2018-12-06T13:11:35.916Z,1.00
2018-12-06T13:14:04.614Z,1.00
2018-12-06T13:16:33.328Z,1.00
2018-12-06T13:19:02.011Z,1.00
2018-12-06T13:21:31.591Z,1.00
2018-12-06T13:24:00.346Z,1.00
2018-12-06T13:26:29.113Z,1.00
2018-12-06T13:28:57.837Z,1.00
2018-12-06T13:31:26.496Z,1.00
2018-12-06T13:33:55.188Z,1.00
2018-12-06T13:36:23.872Z,1.00
2018-12-06T13:38:52.539Z,1.00
2018-12-06T13:41:21.233Z,1.00
2018-12-06T13:43:49.940Z,1.00
2018-12-06T13:46:18.705Z,1.00
2018-12-06T13:48:47.372Z,1.00
2018-12-06T13:51:16.062Z,1.00
2018-12-06T13:53:44.764Z,1.00
2018-12-06T13:56:13.678Z,1.00
2018-12-06T13:58:42.413Z,1.00
2018-12-06T14:01:11.725Z,1.00
2018-12-06T14:03:40.822Z,1.00
2018-12-06T14:06:09.752Z,1.00
2018-12-06T14:08:38.511Z,1.00
2018-12-06T14:11:07.218Z,1.00
2018-12-06T14:13:35.997Z,1.00
2018-12-06T14:16:10.359Z,1.00
2018-12-06T14:18:35.436Z,1.00
2018-12-06T14:21:04.831Z,1.00
2018-12-06T14:23:33.538Z,1.00
2018-12-06T14:26:02.233Z,1.00
2018-12-06T14:28:30.952Z,4.80
2018-12-06T14:30:59.651Z,14.90
2018-12-06T14:33:28.378Z,21.00
2018-12-06T14:35:57.267Z,29.60
2018-12-06T14:38:25.993Z,38.50
2018-12-06T14:40:54.697Z,38.90
2018-12-06T14:43:23.503Z,39.40
2018-12-06T14:45:52.598Z,39.40
2018-12-06T14:48:21.393Z,33.10
2018-12-06T14:50:50.948Z,28.60
2018-12-06T14:53:20.068Z,25.90
2018-12-06T14:55:49.435Z,23.20
2018-12-06T14:58:18.147Z,19.60
2018-12-06T15:00:46.841Z,16.10
2018-12-06T15:03:15.580Z,12.90
2018-12-06T15:05:44.272Z,13.30
2018-12-06T15:08:12.932Z,13.10
2018-12-06T15:10:41.613Z,12.30
2018-12-06T15:13:10.337Z,15.10
2018-12-06T15:15:39.048Z,13.00
2018-12-06T15:18:07.733Z,19.10
2018-12-06T15:20:36.453Z,17.10
2018-12-06T15:23:05.215Z,13.00
2018-12-06T15:25:41.536Z,18.40
2018-12-06T15:28:04.593Z,26.90
2018-12-06T15:30:33.325Z,45.10
2018-12-06T15:33:02.021Z,43.30
2018-12-06T15:35:30.798Z,52.90
2018-12-06T15:37:59.470Z,56.60
2018-12-06T15:40:28.164Z,67.20
2018-12-06T15:42:56.943Z,70.90
2018-12-06T15:45:25.609Z,74.00
2018-12-06T15:47:54.336Z,85.40
2018-12-06T15:50:22.991Z,89.70
2018-12-06T15:52:51.667Z,93.00
2018-12-06T15:55:20.328Z,96.70
2018-12-06T15:57:49.077Z,99.80
2018-12-06T16:00:17.813Z,99.90
2018-12-06T16:02:46.753Z,99.90
2018-12-06T16:05:15.484Z,99.90
2018-12-06T16:07:44.196Z,99.90
2018-12-06T16:10:13.033Z,99.90
2018-12-06T16:12:41.712Z,99.90
2018-12-06T16:15:10.389Z,99.90
2018-12-06T16:17:39.061Z,99.90
2018-12-06T16:20:08.781Z,99.90
2018-12-06T16:22:37.469Z,99.90
2018-12-06T16:25:06.305Z,99.90
2018-12-06T16:27:35.809Z,99.90
2018-12-06T16:30:05.986Z,99.90
2018-12-06T16:32:34.660Z,99.90
2018-12-06T16:35:03.350Z,99.90
2018-12-06T16:37:32.055Z,99.90
2018-12-06T16:40:00.736Z,99.90
2018-12-06T16:42:29.498Z,99.90
2018-12-06T16:44:58.175Z,99.90
2018-12-06T16:47:26.843Z,99.90
2018-12-06T16:49:55.535Z,99.90
2018-12-06T16:52:24.240Z,99.90
2018-12-06T16:54:52.984Z,99.90
2018-12-06T16:57:21.644Z,99.90
2018-12-06T16:59:50.381Z,99.90
2018-12-06T17:02:19.296Z,99.90
2018-12-06T17:04:47.968Z,99.90
2018-12-06T17:07:16.753Z,99.90
2018-12-06T17:09:45.757Z,99.90
2018-12-06T17:12:14.460Z,99.90
2018-12-06T17:14:43.262Z,99.90
2018-12-06T17:17:37.551Z,99.90
2018-12-06T17:20:07.163Z,99.90
2018-12-06T17:22:35.837Z,99.90
2018-12-06T17:25:05.332Z,99.90
2018-12-06T17:27:34.030Z,99.90
2018-12-06T17:30:02.747Z,99.90
2018-12-06T17:32:31.627Z,99.90
2018-12-06T17:35:00.361Z,99.90
2018-12-06T17:37:29.105Z,99.90
2018-12-06T17:39:57.768Z,99.90
2018-12-06T17:42:26.477Z,99.90
2018-12-06T17:44:55.185Z,99.90
2018-12-06T17:47:23.914Z,99.90
2018-12-06T17:49:52.586Z,99.90
2018-12-06T17:52:21.406Z,99.90
2018-12-06T17:54:50.145Z,99.90
2018-12-06T17:57:18.913Z,99.90
2018-12-06T17:59:47.660Z,99.90
2018-12-06T18:02:16.339Z,99.90
2018-12-06T18:04:45.021Z,99.90
2018-12-06T18:07:13.776Z,99.90
2018-12-06T18:09:44.267Z,99.90
2018-12-06T18:12:13.037Z,99.90
2018-12-06T18:14:42.278Z,99.90
2018-12-06T18:17:11.031Z,99.90
2018-12-06T18:19:39.717Z,99.90
2018-12-06T18:22:08.441Z,99.90
2018-12-06T18:24:37.156Z,99.90
2018-12-06T18:27:05.844Z,99.90
2018-12-06T18:29:34.572Z,99.90
2018-12-06T18:32:03.236Z,99.90
2018-12-06T18:34:31.932Z,99.90
2018-12-06T18:37:00.660Z,99.90
2018-12-06T18:39:30.280Z,99.90
2018-12-06T18:41:58.975Z,99.90
2018-12-06T18:44:27.663Z,99.90
2018-12-06T18:46:56.672Z,99.90
2018-12-06T18:49:25.370Z,99.90
2018-12-06T18:51:54.123Z,99.90
2018-12-06T18:54:22.855Z,99.90
2018-12-06T18:56:51.538Z,99.90
2018-12-06T18:59:20.228Z,99.90
2018-12-06T19:01:49.006Z,99.90
2018-12-06T19:04:18.095Z,99.90
2018-12-06T19:06:46.868Z,99.90
2018-12-06T19:09:15.603Z,99.90
2018-12-06T19:11:44.323Z,99.90
2018-12-06T19:14:13.110Z,99.90
2018-12-06T19:16:41.885Z,99.90
2018-12-06T19:19:10.567Z,99.90
2018-12-06T19:21:39.305Z,99.90
2018-12-06T19:24:08.022Z,99.90
2018-12-06T19:26:36.752Z,99.90
2018-12-06T19:29:05.495Z,99.90
2018-12-06T19:31:34.263Z,99.90
2018-12-06T19:34:02.997Z,99.90
2018-12-06T19:36:31.741Z,99.90
2018-12-06T19:39:00.502Z,99.90
2018-12-06T19:41:29.264Z,99.90
2018-12-06T19:43:57.952Z,99.90
2018-12-06T19:46:26.644Z,99.90
2018-12-06T19:48:55.421Z,99.90
2018-12-06T19:51:24.129Z,99.90
2018-12-06T19:53:53.436Z,99.90
2018-12-06T19:56:22.497Z,99.90
2018-12-06T19:58:51.171Z,99.90
2018-12-06T20:01:19.895Z,99.90
2018-12-06T20:03:48.584Z,99.90
2018-12-06T20:06:17.432Z,99.90
2018-12-06T20:08:46.221Z,99.90
2018-12-06T20:11:14.991Z,99.90
2018-12-06T20:13:43.693Z,99.90
2018-12-06T20:16:12.427Z,99.90
2018-12-06T20:18:41.115Z,99.90
2018-12-06T20:21:09.819Z,99.90
2018-12-06T20:23:38.508Z,99.90
2018-12-06T20:26:07.188Z,99.90
2018-12-06T20:28:36.049Z,99.90
2018-12-06T20:31:04.757Z,99.90
2018-12-06T20:33:33.485Z,99.90
2018-12-06T20:36:02.169Z,99.90
2018-12-06T20:38:30.941Z,99.90
2018-12-06T20:41:00.490Z,99.90
2018-12-06T20:46:34.226Z,99.90
2018-12-06T20:49:03.146Z,99.90
2018-12-06T20:51:33.427Z,99.90
2018-12-06T20:54:02.546Z,99.90
2018-12-06T20:56:31.379Z,99.90
2018-12-06T20:59:00.191Z,99.90
2018-12-06T21:01:28.899Z,99.90
2018-12-06T21:03:57.580Z,99.90
2018-12-06T21:06:26.313Z,99.90
2018-12-06T21:08:55.013Z,99.90
2018-12-06T21:11:23.683Z,99.90
2018-12-06T21:13:52.406Z,99.90
2018-12-06T21:16:21.420Z,99.90
2018-12-06T21:18:50.112Z,99.90
2018-12-06T21:21:19.126Z,99.90
2018-12-06T21:23:47.800Z,99.90
2018-12-06T21:26:16.501Z,99.90
2018-12-06T21:28:45.214Z,99.90
2018-12-06T21:31:13.943Z,99.90
2018-12-06T21:33:42.655Z,99.90
2018-12-06T21:36:11.420Z,99.90
2018-12-06T21:38:40.140Z,99.90
2018-12-06T21:41:08.852Z,99.90
2018-12-06T21:43:37.571Z,99.90
2018-12-06T21:46:06.300Z,99.90
2018-12-06T21:48:34.997Z,99.90
2018-12-06T21:51:03.745Z,99.90
2018-12-06T21:53:32.519Z,99.90
2018-12-06T21:56:01.246Z,99.90
2018-12-06T21:58:29.963Z,99.90
2018-12-06T22:00:58.704Z,99.90
2018-12-06T22:03:27.459Z,99.90
2018-12-06T22:05:56.157Z,99.90
2018-12-06T22:08:24.839Z,99.90
2018-12-06T22:10:53.557Z,99.90
2018-12-06T22:13:22.257Z,99.90
2018-12-06T22:15:50.994Z,99.90
2018-12-06T22:18:19.724Z,99.90
2018-12-06T22:20:48.424Z,99.90
2018-12-06T22:23:17.157Z,99.90
2018-12-06T22:25:45.914Z,99.90
2018-12-06T22:28:14.589Z,99.90
2018-12-06T22:30:43.282Z,99.90
2018-12-06T22:33:12.009Z,99.90
2018-12-06T22:35:40.690Z,99.90
2018-12-06T22:38:09.534Z,99.90
2018-12-06T22:40:38.297Z,99.90
2018-12-06T22:43:07.030Z,99.90
2018-12-06T22:45:57.067Z,99.90
2018-12-06T22:48:25.766Z,99.90
2018-12-06T22:50:54.493Z,99.90
2018-12-06T22:53:23.163Z,99.90
2018-12-06T22:55:51.887Z,99.90
2018-12-06T22:58:20.599Z,99.90
2018-12-06T23:00:51.169Z,99.90
2018-12-06T23:03:19.893Z,99.90
2018-12-06T23:05:48.620Z,99.90
2018-12-06T23:08:17.333Z,99.90
2018-12-06T23:10:46.058Z,99.90
2018-12-06T23:13:14.788Z,99.90
2018-12-06T23:15:43.565Z,99.90
2018-12-06T23:18:12.311Z,99.90
2018-12-06T23:20:41.035Z,99.90
2018-12-06T23:23:09.763Z,99.90
2018-12-06T23:25:38.473Z,99.90
2018-12-06T23:28:07.196Z,99.90
2018-12-06T23:30:35.894Z,99.90
2018-12-06T23:33:04.613Z,99.90
2018-12-06T23:35:33.303Z,99.90
2018-12-06T23:38:01.984Z,99.90
2018-12-06T23:40:30.660Z,99.90
2018-12-06T23:42:59.340Z,99.90
2018-12-06T23:45:28.030Z,99.90
2018-12-06T23:47:56.696Z,99.90
2018-12-06T23:50:25.426Z,99.90
2018-12-06T23:52:54.881Z,99.90
2018-12-06T23:55:23.604Z,99.90
2018-12-06T23:57:52.282Z,99.90
